Haugen, WI (54841)

6:41 AM CDT on July 24, 2016 (GMT -0500)
Shell Lake | | Change Station

Elev 1230 ft 45.72 °N, 91.89 °W | Updated 1 minute ago

Clear
Clear
66.1 °F
Feels Like 66.1 °F
N
0.0
Wind Variable Wind from North
Gusts 0.0 mph

Today
High -- | Low -- °F
--% Chance of Precip.
Yesterday
High -- | Low -- °F
Precip. -- in
Pressure 29.80 in
Visibility 10.0 miles
Clouds Clear
Dew Point 65 °F
Humidity 95%
Rainfall 0.00 in
Snow Depth Not available.
5:42 AM 8:44 PM
Waning Gibbous, 77% visible
METAR KUBE 241135Z AUTO 00000KT 10SM CLR 18/17 A2980 RMK AO2
Pressure 29.80 in
Visibility 10.0 miles
Clouds Clear
Dew Point 65 °F
Humidity 95%
Rainfall 0.00 in
Snow Depth Not available.
5:42 AM 8:44 PM
Waning Gibbous, 77% visible
METAR KUBE 241135Z AUTO 00000KT 10SM CLR 18/17 A2980 RMK AO2

10-Day Weather Forecast

Almanac

Astronomy

Jul. 24, 2016 Rise Set
Actual Time
Civil Twilight
Nautical Twilight
Astronomical Twilight
Moon
Length of Visible Light
Length of Day
Tomorrow will be .
, % of the Moon is Illuminated

Today's Extremes

State Highs State Lows

Community

WunderPhotos

Upload Photos

1,927,049 photos uploaded!

WunderBlog® & News

Nearby

Air Quality

  Air Quality AQ Index Pollutant
Not available.

Snow Depth

Station Depth Elevation

Earthquake Activity

City Distance Mag. Time & Date
Minimum magnitude displayed is 2.5.

Coastal Water Temperatures

Place Temperature

Stations

Nearby Weather Stations

Station Location Temp. Windchill Dew Point Humidity Wind Precip. Elev Updated Type
                   

Watches & Warnings

There are currently no watches in effect.